sensor_id;sensor_type;location;lat;lon;timestamp;pressure;altitude;pressure_sealevel;temperature;humidity
57574;BME280;63722;48.858;21.906;2023-01-10T11:25:20;98079.22;;;21.56;48.67
57574;BME280;63722;48.858;21.906;2023-01-10T11:30:26;98072.56;;;21.58;48.61
57574;BME280;63722;48.858;21.906;2023-01-10T11:32:54;98078.09;;;21.46;48.87
57574;BME280;63722;48.858;21.906;2023-01-10T11:35:33;98081.09;;;21.55;48.69
57574;BME280;63722;48.858;21.906;2023-01-10T11:38:05;98089.06;;;21.50;48.97
57574;BME280;63722;48.858;21.906;2023-01-10T11:40:32;98091.22;;;21.53;48.89
57574;BME280;63722;48.858;21.906;2023-01-10T11:42:59;98101.34;;;21.51;48.72
57574;BME280;63722;48.858;21.906;2023-01-10T11:45:30;98101.34;;;21.51;48.99
57574;BME280;63722;48.858;21.906;2023-01-10T11:50:30;98117.09;;;21.58;48.99
57574;BME280;63722;48.858;21.906;2023-01-10T11:52:56;98122.16;;;21.59;49.03
57574;BME280;63722;48.858;21.906;2023-01-10T11:55:28;98124.31;;;21.52;49.15
57574;BME280;63722;48.858;21.906;2023-01-10T11:58:20;98131.19;;;21.48;49.07
57574;BME280;63722;48.858;21.906;2023-01-10T12:00:47;98132.84;;;21.54;49.22
57574;BME280;63722;48.858;21.906;2023-01-10T12:03:23;98138.44;;;21.58;49.15
57574;BME280;63722;48.858;21.906;2023-01-10T12:06:02;98144.59;;;21.58;49.33
57574;BME280;63722;48.858;21.906;2023-01-10T12:08:33;98144.34;;;21.65;49.10
57574;BME280;63722;48.858;21.906;2023-01-10T12:11:23;98139.25;;;21.58;49.33
57574;BME280;63722;48.858;21.906;2023-01-10T12:13:53;98139.78;;;21.66;49.15
57574;BME280;63722;48.858;21.906;2023-01-10T12:16:22;98148.88;;;21.70;49.23
57574;BME280;63722;48.858;21.906;2023-01-10T12:18:49;98157.69;;;21.70;49.24
57574;BME280;63722;48.858;21.906;2023-01-10T12:21:18;98163.31;;;21.74;48.82
57574;BME280;63722;48.858;21.906;2023-01-10T12:23:45;98157.16;;;21.63;49.35
57574;BME280;63722;48.858;21.906;2023-01-10T12:26:13;98160.34;;;21.65;49.21
57574;BME280;63722;48.858;21.906;2023-01-10T12:28:46;98142.97;;;21.62;48.97
57574;BME280;63722;48.858;21.906;2023-01-10T12:31:14;98160.38;;;21.75;49.02
57574;BME280;63722;48.858;21.906;2023-01-10T12:33:45;98149.94;;;21.58;49.39
57574;BME280;63722;48.858;21.906;2023-01-10T12:39:07;98169.69;;;21.68;49.17
57574;BME280;63722;48.858;21.906;2023-01-10T12:47:18;98194.25;;;21.64;49.30
57574;BME280;63722;48.858;21.906;2023-01-10T12:50:36;98194.78;;;21.67;49.07
57574;BME280;63722;48.858;21.906;2023-01-10T12:55:14;98199.00;;;21.62;49.14
57574;BME280;63722;48.858;21.906;2023-01-10T12:57:41;98189.44;;;21.61;49.23
57574;BME280;63722;48.858;21.906;2023-01-10T13:00:17;98186.22;;;21.64;49.11
57574;BME280;63722;48.858;21.906;2023-01-10T13:02:45;98181.41;;;21.61;49.39
57574;BME280;63722;48.858;21.906;2023-01-10T13:05:23;98188.06;;;21.59;49.25
57574;BME280;63722;48.858;21.906;2023-01-10T13:07:51;98195.81;;;21.60;49.27
57574;BME280;63722;48.858;21.906;2023-01-10T13:10:22;98203.81;;;21.60;49.24
57574;BME280;63722;48.858;21.906;2023-01-10T13:15:42;98218.78;;;21.61;49.10
57574;BME280;63722;48.858;21.906;2023-01-10T13:18:24;98212.91;;;21.64;49.47
57574;BME280;63722;48.858;21.906;2023-01-10T13:21:02;98212.94;;;21.70;49.13
57574;BME280;63722;48.858;21.906;2023-01-10T13:23:32;98216.63;;;21.58;49.45
57574;BME280;63722;48.858;21.906;2023-01-10T13:26:04;98233.75;;;21.68;49.14
57574;BME280;63722;48.858;21.906;2023-01-10T13:28:35;98228.66;;;21.66;49.26
57574;BME280;63722;48.858;21.906;2023-01-10T13:31:04;98240.13;;;21.61;49.26
57574;BME280;63722;48.858;21.906;2023-01-10T13:33:49;98228.38;;;21.62;49.36
57574;BME280;63722;48.858;21.906;2023-01-10T13:36:24;98228.41;;;21.68;49.07
57574;BME280;63722;48.858;21.906;2023-01-10T13:38:56;98234.25;;;21.64;49.24
57574;BME280;63722;48.858;21.906;2023-01-10T13:41:23;98233.69;;;21.62;49.14
57574;BME280;63722;48.858;21.906;2023-01-10T13:44:10;98231.84;;;21.63;49.29
57574;BME280;63722;48.858;21.906;2023-01-10T13:46:40;98238.50;;;21.60;49.39
57574;BME280;63722;48.858;21.906;2023-01-10T13:51:36;98237.19;;;21.68;49.35
57574;BME280;63722;48.858;21.906;2023-01-10T13:56:42;98250.28;;;21.64;49.28
57574;BME280;63722;48.858;21.906;2023-01-10T14:02:24;98247.88;;;21.63;49.14
57574;BME280;63722;48.858;21.906;2023-01-10T14:05:07;98247.09;;;21.68;49.27
57574;BME280;63722;48.858;21.906;2023-01-10T14:07:49;98252.16;;;21.74;49.15
57574;BME280;63722;48.858;21.906;2023-01-10T14:13:06;98260.69;;;21.66;49.35
57574;BME280;63722;48.858;21.906;2023-01-10T14:15:42;98260.13;;;21.64;49.42
57574;BME280;63722;48.858;21.906;2023-01-10T14:18:26;98264.13;;;21.61;49.44
57574;BME280;63722;48.858;21.906;2023-01-10T14:20:56;98272.13;;;21.61;49.24
57574;BME280;63722;48.858;21.906;2023-01-10T14:23:28;98267.09;;;21.70;49.26
57574;BME280;63722;48.858;21.906;2023-01-10T14:25:56;98255.88;;;21.63;49.32
57574;BME280;63722;48.858;21.906;2023-01-10T14:28:32;98251.84;;;21.66;49.29
57574;BME280;63722;48.858;21.906;2023-01-10T14:31:11;98246.53;;;21.66;49.25
57574;BME280;63722;48.858;21.906;2023-01-10T14:33:41;98260.19;;;21.74;49.03
57574;BME280;63722;48.858;21.906;2023-01-10T14:36:32;98263.09;;;21.73;49.28
57574;BME280;63722;48.858;21.906;2023-01-10T14:39:00;98267.38;;;21.74;49.30
57574;BME280;63722;48.858;21.906;2023-01-10T14:41:40;98271.91;;;21.73;49.12
57574;BME280;63722;48.858;21.906;2023-01-10T14:44:16;98277.50;;;21.67;49.27
57574;BME280;63722;48.858;21.906;2023-01-10T14:46:54;98263.63;;;21.75;49.48
57574;BME280;63722;48.858;21.906;2023-01-10T14:51:50;98275.09;;;21.70;49.37
57574;BME280;63722;48.858;21.906;2023-01-10T14:54:19;98273.00;;;21.72;49.31
57574;BME280;63722;48.858;21.906;2023-01-10T14:56:50;98278.53;;;21.66;49.33
57574;BME280;63722;48.858;21.906;2023-01-10T14:59:26;98291.03;;;21.55;49.47
57574;BME280;63722;48.858;21.906;2023-01-10T15:01:57;98307.25;;;21.48;49.46
57574;BME280;63722;48.858;21.906;2023-01-10T15:04:26;98310.94;;;21.42;49.71
57574;BME280;63722;48.858;21.906;2023-01-10T15:06:58;98332.00;;;21.38;49.85
57574;BME280;63722;48.858;21.906;2023-01-10T15:09:28;98335.44;;;21.34;49.91
57574;BME280;63722;48.858;21.906;2023-01-10T15:11:56;98331.69;;;21.29;49.91
57574;BME280;63722;48.858;21.906;2023-01-10T15:14:24;98343.91;;;21.25;49.83
57574;BME280;63722;48.858;21.906;2023-01-10T15:16:57;98345.53;;;21.26;49.92
57574;BME280;63722;48.858;21.906;2023-01-10T15:19:29;98357.75;;;21.22;49.86
57574;BME280;63722;48.858;21.906;2023-01-10T15:21:55;98367.88;;;21.20;49.82
57574;BME280;63722;48.858;21.906;2023-01-10T15:24:35;98355.84;;;21.18;49.74
57574;BME280;63722;48.858;21.906;2023-01-10T15:27:03;98358.78;;;21.16;49.77
57574;BME280;63722;48.858;21.906;2023-01-10T15:29:31;98352.38;;;21.12;50.04
57574;BME280;63722;48.858;21.906;2023-01-10T15:34:53;98372.06;;;21.11;49.77
57574;BME280;63722;48.858;21.906;2023-01-10T15:37:27;98376.88;;;21.09;49.91
57574;BME280;63722;48.858;21.906;2023-01-10T15:39:59;98392.31;;;21.07;49.91
57574;BME280;63722;48.858;21.906;2023-01-10T15:42:25;98397.91;;;21.05;49.91
57574;BME280;63722;48.858;21.906;2023-01-10T15:44:51;98406.94;;;21.04;49.80
57574;BME280;63722;48.858;21.906;2023-01-10T15:49:54;98418.91;;;21.02;49.69
57574;BME280;63722;48.858;21.906;2023-01-10T15:52:21;98416.50;;;21.00;49.87
57574;BME280;63722;48.858;21.906;2023-01-10T15:54:47;98430.09;;;20.99;49.78
57574;BME280;63722;48.858;21.906;2023-01-10T15:57:26;98430.59;;;20.96;49.84
57574;BME280;63722;48.858;21.906;2023-01-10T15:59:54;98432.22;;;20.97;49.72
57574;BME280;63722;48.858;21.906;2023-01-10T16:02:32;98441.75;;;20.92;49.76
57574;BME280;63722;48.858;21.906;2023-01-10T16:05:06;98447.09;;;20.92;49.74
57574;BME280;63722;48.858;21.906;2023-01-10T16:07:33;98461.47;;;20.91;49.67
57574;BME280;63722;48.858;21.906;2023-01-10T16:10:06;98458.56;;;20.93;49.66
57574;BME280;63722;48.858;21.906;2023-01-10T16:12:34;98465.19;;;20.90;49.84
57574;BME280;63722;48.858;21.906;2023-01-10T16:15:30;98467.06;;;20.90;49.64
57574;BME280;63722;48.858;21.906;2023-01-10T16:17:56;98461.41;;;20.86;49.62
57574;BME280;63722;48.858;21.906;2023-01-10T16:20:37;98459.81;;;20.85;49.54
57574;BME280;63722;48.858;21.906;2023-01-10T16:23:04;98466.75;;;20.86;49.59
57574;BME280;63722;48.858;21.906;2023-01-10T16:25:37;98468.63;;;20.86;49.49
57574;BME280;63722;48.858;21.906;2023-01-10T16:28:03;98462.75;;;20.84;49.50
57574;BME280;63722;48.858;21.906;2023-01-10T16:30:33;98467.50;;;20.82;49.58
57574;BME280;63722;48.858;21.906;2023-01-10T16:33:10;98461.66;;;20.85;49.39
57574;BME280;63722;48.858;21.906;2023-01-10T16:35:35;98457.09;;;20.80;49.49
57574;BME280;63722;48.858;21.906;2023-01-10T16:38:01;98451.22;;;20.78;49.21
57574;BME280;63722;48.858;21.906;2023-01-10T16:40:32;98464.53;;;20.78;49.48
57574;BME280;63722;48.858;21.906;2023-01-10T16:42:59;98460.81;;;20.79;49.55
57574;BME280;63722;48.858;21.906;2023-01-10T16:45:55;98460.25;;;20.77;49.25
57574;BME280;63722;48.858;21.906;2023-01-10T16:48:26;98460.25;;;20.77;49.43
57574;BME280;63722;48.858;21.906;2023-01-10T16:50:52;98468.25;;;20.77;49.26
57574;BME280;63722;48.858;21.906;2023-01-10T16:53:19;98469.31;;;20.76;49.25
57574;BME280;63722;48.858;21.906;2023-01-10T16:58:12;98471.97;;;20.76;49.15
57574;BME280;63722;48.858;21.906;2023-01-10T17:00:39;98474.06;;;20.74;49.45
57574;BME280;63722;48.858;21.906;2023-01-10T17:03:09;98474.06;;;20.74;49.17
57574;BME280;63722;48.858;21.906;2023-01-10T17:05:36;98485.81;;;20.73;49.13
57574;BME280;63722;48.858;21.906;2023-01-10T17:08:03;98489.50;;;20.72;49.24
57574;BME280;63722;48.858;21.906;2023-01-10T17:10:29;98488.72;;;20.71;49.19
57574;BME280;63722;48.858;21.906;2023-01-10T17:12:56;98494.03;;;20.71;49.13
57574;BME280;63722;48.858;21.906;2023-01-10T17:15:22;98499.38;;;20.71;48.98
57574;BME280;63722;48.858;21.906;2023-01-10T17:17:47;98495.09;;;20.70;48.95
57574;BME280;63722;48.858;21.906;2023-01-10T17:20:14;98508.66;;;20.69;48.88
57574;BME280;63722;48.858;21.906;2023-01-10T17:22:41;98495.25;;;20.64;49.10
57574;BME280;63722;48.858;21.906;2023-01-10T17:25:17;98517.19;;;20.71;48.95
57574;BME280;63722;48.858;21.906;2023-01-10T17:27:43;98514.00;;;20.69;48.94
57574;BME280;63722;48.858;21.906;2023-01-10T17:30:10;98515.03;;;20.68;48.82
57574;BME280;63722;48.858;21.906;2023-01-10T17:32:36;98514.00;;;20.69;48.95
57574;BME280;63722;48.858;21.906;2023-01-10T17:35:02;98515.28;;;20.66;48.81
57574;BME280;63722;48.858;21.906;2023-01-10T17:37:27;98510.19;;;20.65;48.77
57574;BME280;63722;48.858;21.906;2023-01-10T17:39:52;98515.53;;;20.65;48.74
57574;BME280;63722;48.858;21.906;2023-01-10T17:42:18;98520.03;;;20.64;48.79
57574;BME280;63722;48.858;21.906;2023-01-10T17:44:43;98524.09;;;20.67;48.78
57574;BME280;63722;48.858;21.906;2023-01-10T17:47:09;98527.81;;;20.66;48.65
57574;BME280;63722;48.858;21.906;2023-01-10T17:49:35;98527.81;;;20.66;48.82
57574;BME280;63722;48.858;21.906;2023-01-10T17:52:00;98521.91;;;20.64;48.50
57574;BME280;63722;48.858;21.906;2023-01-10T17:54:26;98526.19;;;20.65;48.63
57574;BME280;63722;48.858;21.906;2023-01-10T17:56:52;98519.47;;;20.62;48.32
57574;BME280;63722;48.858;21.906;2023-01-10T17:59:17;98521.06;;;20.63;48.70
57574;BME280;63722;48.858;21.906;2023-01-10T18:01:43;98517.06;;;20.61;48.51
57574;BME280;63722;48.858;21.906;2023-01-10T18:04:08;98525.06;;;20.61;48.50
57574;BME280;63722;48.858;21.906;2023-01-10T18:06:34;98525.84;;;20.61;48.55
57574;BME280;63722;48.858;21.906;2023-01-10T18:09:00;98527.47;;;20.62;48.57
57574;BME280;63722;48.858;21.906;2023-01-10T18:11:26;98525.06;;;20.61;48.47
57574;BME280;63722;48.858;21.906;2023-01-10T18:13:56;98522.41;;;20.61;48.40
57574;BME280;63722;48.858;21.906;2023-01-10T18:16:21;98537.56;;;20.60;48.58
57574;BME280;63722;48.858;21.906;2023-01-10T18:18:47;98537.56;;;20.60;48.20
57574;BME280;63722;48.858;21.906;2023-01-10T18:21:14;98542.63;;;20.62;48.30
57574;BME280;63722;48.858;21.906;2023-01-10T18:23:40;98542.88;;;20.60;48.41
57574;BME280;63722;48.858;21.906;2023-01-10T18:26:08;98546.38;;;20.61;48.43
57574;BME280;63722;48.858;21.906;2023-01-10T18:28:43;98544.75;;;20.60;48.26
57574;BME280;63722;48.858;21.906;2023-01-10T18:31:11;98553.78;;;20.58;48.29
57574;BME280;63722;48.858;21.906;2023-01-10T18:33:37;98553.78;;;20.58;48.27
57574;BME280;63722;48.858;21.906;2023-01-10T18:36:04;98555.09;;;20.56;48.18
57574;BME280;63722;48.858;21.906;2023-01-10T18:38:35;98566.56;;;20.56;48.35
57574;BME280;63722;48.858;21.906;2023-01-10T18:41:01;98560.44;;;20.56;48.14
57574;BME280;63722;48.858;21.906;2023-01-10T18:43:26;98567.34;;;20.57;48.40
57574;BME280;63722;48.858;21.906;2023-01-10T18:46:09;98566.56;;;20.56;48.07
57574;BME280;63722;48.858;21.906;2023-01-10T18:48:35;98566.81;;;20.55;48.41
57574;BME280;63722;48.858;21.906;2023-01-10T18:51:03;98570.84;;;20.57;48.20
57574;BME280;63722;48.858;21.906;2023-01-10T18:53:29;98571.88;;;20.56;47.88
57574;BME280;63722;48.858;21.906;2023-01-10T18:56:00;98575.59;;;20.55;48.00
57574;BME280;63722;48.858;21.906;2023-01-10T18:58:28;98583.28;;;20.52;48.15
57574;BME280;63722;48.858;21.906;2023-01-10T19:00:54;98588.91;;;20.55;48.07
57574;BME280;63722;48.858;21.906;2023-01-10T19:03:20;98597.72;;;20.56;48.15
57574;BME280;63722;48.858;21.906;2023-01-10T19:05:45;98596.91;;;20.55;47.81
57574;BME280;63722;48.858;21.906;2023-01-10T19:08:10;98600.63;;;20.54;47.97
57574;BME280;63722;48.858;21.906;2023-01-10T19:10:41;98601.44;;;20.55;47.84
57574;BME280;63722;48.858;21.906;2023-01-10T19:13:07;98605.97;;;20.54;48.05
57574;BME280;63722;48.858;21.906;2023-01-10T19:15:32;98611.28;;;20.54;47.93
57574;BME280;63722;48.858;21.906;2023-01-10T19:17:58;98612.34;;;20.53;48.15
57574;BME280;63722;48.858;21.906;2023-01-10T19:20:23;98615.00;;;20.53;47.98
57574;BME280;63722;48.858;21.906;2023-01-10T19:22:48;98611.78;;;20.51;47.92
57574;BME280;63722;48.858;21.906;2023-01-10T19:25:14;98625.66;;;20.53;47.92
57574;BME280;63722;48.858;21.906;2023-01-10T19:27:39;98625.66;;;20.53;47.89
57574;BME280;63722;48.858;21.906;2023-01-10T19:30:05;98630.19;;;20.53;48.04
57574;BME280;63722;48.858;21.906;2023-01-10T19:32:34;98629.34;;;20.52;47.85
57574;BME280;63722;48.858;21.906;2023-01-10T19:35:00;98630.19;;;20.53;47.79
57574;BME280;63722;48.858;21.906;2023-01-10T19:37:26;98642.13;;;20.50;47.79
57574;BME280;63722;48.858;21.906;2023-01-10T19:39:51;98634.69;;;20.52;47.72
57574;BME280;63722;48.858;21.906;2023-01-10T19:42:17;98647.44;;;20.50;47.91
57574;BME280;63722;48.858;21.906;2023-01-10T19:44:42;98654.41;;;20.51;47.88
57574;BME280;63722;48.858;21.906;2023-01-10T19:47:08;98650.13;;;20.50;47.60
57574;BME280;63722;48.858;21.906;2023-01-10T19:49:36;98662.41;;;20.51;47.77
57574;BME280;63722;48.858;21.906;2023-01-10T19:52:02;98656.47;;;20.49;47.71
57574;BME280;63722;48.858;21.906;2023-01-10T19:54:29;98667.13;;;20.49;47.76
57574;BME280;63722;48.858;21.906;2023-01-10T19:56:56;98663.44;;;20.50;47.62
57574;BME280;63722;48.858;21.906;2023-01-10T19:59:21;98659.63;;;20.46;47.73
57574;BME280;63722;48.858;21.906;2023-01-10T20:01:47;98658.59;;;20.47;47.68
57574;BME280;63722;48.858;21.906;2023-01-10T20:04:13;98656.16;;;20.46;47.58
57574;BME280;63722;48.858;21.906;2023-01-10T20:06:39;98651.88;;;20.45;47.66
57574;BME280;63722;48.858;21.906;2023-01-10T20:09:05;98675.13;;;20.49;47.53
57574;BME280;63722;48.858;21.906;2023-01-10T20:11:33;98669.25;;;20.47;47.72
57574;BME280;63722;48.858;21.906;2023-01-10T20:14:22;98675.38;;;20.48;47.61
57574;BME280;63722;48.858;21.906;2023-01-10T20:16:49;98671.44;;;20.50;47.39
57574;BME280;63722;48.858;21.906;2023-01-10T20:19:16;98677.25;;;20.47;47.38
57574;BME280;63722;48.858;21.906;2023-01-10T20:21:42;98678.28;;;20.46;47.51
57574;BME280;63722;48.858;21.906;2023-01-10T20:24:15;98681.53;;;20.48;47.57
57574;BME280;63722;48.858;21.906;2023-01-10T20:26:42;98670.22;;;20.41;47.34
57574;BME280;63722;48.858;21.906;2023-01-10T20:29:08;98686.03;;;20.48;47.38
57574;BME280;63722;48.858;21.906;2023-01-10T20:31:34;98686.28;;;20.46;47.57
57574;BME280;63722;48.858;21.906;2023-01-10T20:34:00;98689.75;;;20.47;47.35
57574;BME280;63722;48.858;21.906;2023-01-10T20:36:26;98703.88;;;20.47;47.47
57574;BME280;63722;48.858;21.906;2023-01-10T20:38:52;98702.25;;;20.46;47.37
57574;BME280;63722;48.858;21.906;2023-01-10T20:41:23;98705.75;;;20.47;47.31
57574;BME280;63722;48.858;21.906;2023-01-10T20:43:49;98710.25;;;20.46;47.32
57574;BME280;63722;48.858;21.906;2023-01-10T20:46:18;98707.81;;;20.45;47.32
57574;BME280;63722;48.858;21.906;2023-01-10T20:48:45;98712.66;;;20.48;47.27
57574;BME280;63722;48.858;21.906;2023-01-10T20:51:13;98719.31;;;20.45;47.27
57574;BME280;63722;48.858;21.906;2023-01-10T20:53:40;98720.91;;;20.46;46.79
57574;BME280;63722;48.858;21.906;2023-01-10T20:56:09;98726.22;;;20.46;47.22
57574;BME280;63722;48.858;21.906;2023-01-10T20:58:35;98720.59;;;20.43;47.28
57574;BME280;63722;48.858;21.906;2023-01-10T21:01:01;98728.34;;;20.44;46.99
57574;BME280;63722;48.858;21.906;2023-01-10T21:03:27;98723.81;;;20.45;47.16
57574;BME280;63722;48.858;21.906;2023-01-10T21:05:53;98720.34;;;20.44;47.23
57574;BME280;63722;48.858;21.906;2023-01-10T21:08:20;98723.00;;;20.44;47.06
57574;BME280;63722;48.858;21.906;2023-01-10T21:10:47;98729.13;;;20.45;47.39
57574;BME280;63722;48.858;21.906;2023-01-10T21:13:13;98737.34;;;20.43;47.40
57574;BME280;63722;48.858;21.906;2023-01-10T21:15:43;98733.66;;;20.44;47.19
57574;BME280;63722;48.858;21.906;2023-01-10T21:18:10;98743.50;;;20.44;47.13
57574;BME280;63722;48.858;21.906;2023-01-10T21:20:42;98734.13;;;20.41;47.16
57574;BME280;63722;48.858;21.906;2023-01-10T21:23:08;98738.19;;;20.44;46.96
57574;BME280;63722;48.858;21.906;2023-01-10T21:25:33;98743.75;;;20.42;47.07
57574;BME280;63722;48.858;21.906;2023-01-10T21:27:59;98734.13;;;20.41;47.15
57574;BME280;63722;48.858;21.906;2023-01-10T21:30:24;98734.94;;;20.42;47.06
57574;BME280;63722;48.858;21.906;2023-01-10T21:32:49;98743.75;;;20.42;47.04
57574;BME280;63722;48.858;21.906;2023-01-10T21:35:15;98739.22;;;20.43;47.10
57574;BME280;63722;48.858;21.906;2023-01-10T21:37:41;98742.38;;;20.39;47.04
57574;BME280;63722;48.858;21.906;2023-01-10T21:40:07;98739.47;;;20.41;47.05
57574;BME280;63722;48.858;21.906;2023-01-10T21:42:32;98739.22;;;20.43;46.86
57574;BME280;63722;48.858;21.906;2023-01-10T21:45:12;98731.97;;;20.38;46.84
57574;BME280;63722;48.858;21.906;2023-01-10T21:47:38;98737.84;;;20.40;47.04
57574;BME280;63722;48.858;21.906;2023-01-10T21:50:06;98737.59;;;20.42;46.68
57574;BME280;63722;48.858;21.906;2023-01-10T21:52:31;98741.88;;;20.43;46.77
57574;BME280;63722;48.858;21.906;2023-01-10T21:54:57;98743.16;;;20.40;46.77
57574;BME280;63722;48.858;21.906;2023-01-10T21:57:23;98737.84;;;20.40;46.84
57574;BME280;63722;48.858;21.906;2023-01-10T21:59:49;98746.66;;;20.41;46.84
57574;BME280;63722;48.858;21.906;2023-01-10T22:02:16;98744.78;;;20.41;47.03
57574;BME280;63722;48.858;21.906;2023-01-10T22:04:47;98741.34;;;20.41;46.85
57574;BME280;63722;48.858;21.906;2023-01-10T22:07:13;98746.91;;;20.39;46.71
57574;BME280;63722;48.858;21.906;2023-01-10T22:09:39;98754.66;;;20.41;46.89
57574;BME280;63722;48.858;21.906;2023-01-10T22:12:04;98748.50;;;20.40;46.90
57574;BME280;63722;48.858;21.906;2023-01-10T22:14:30;98745.75;;;20.35;47.07
57574;BME280;63722;48.858;21.906;2023-01-10T22:16:55;98743.09;;;20.35;46.72
57574;BME280;63722;48.858;21.906;2023-01-10T22:19:20;98752.78;;;20.41;46.45
57574;BME280;63722;48.858;21.906;2023-01-10T22:21:46;98749.81;;;20.37;46.66
57574;BME280;63722;48.858;21.906;2023-01-10T22:24:11;98748.97;;;20.37;46.70
57574;BME280;63722;48.858;21.906;2023-01-10T22:26:37;98749.31;;;20.41;46.58
57574;BME280;63722;48.858;21.906;2023-01-10T22:29:02;98742.06;;;20.36;46.63
57574;BME280;63722;48.858;21.906;2023-01-10T22:31:28;98739.94;;;20.38;46.46
57574;BME280;63722;48.858;21.906;2023-01-10T22:33:53;98732.19;;;20.36;46.85
57574;BME280;63722;48.858;21.906;2023-01-10T22:36:19;98742.63;;;20.38;46.64
57574;BME280;63722;48.858;21.906;2023-01-10T22:38:45;98735.09;;;20.35;46.60
57574;BME280;63722;48.858;21.906;2023-01-10T22:41:16;98731.97;;;20.38;46.76
57574;BME280;63722;48.858;21.906;2023-01-10T22:43:42;98732.75;;;20.38;46.65
57574;BME280;63722;48.858;21.906;2023-01-10T22:46:07;98729.78;;;20.35;46.54
57574;BME280;63722;48.858;21.906;2023-01-10T22:48:34;98737.53;;;20.36;46.59
57574;BME280;63722;48.858;21.906;2023-01-10T22:51:00;98738.31;;;20.37;46.72
57574;BME280;63722;48.858;21.906;2023-01-10T22:53:26;98733.81;;;20.37;46.54
57574;BME280;63722;48.858;21.906;2023-01-10T22:55:53;98739.94;;;20.38;46.51
57574;BME280;63722;48.858;21.906;2023-01-10T22:58:19;98736.72;;;20.36;46.39
57574;BME280;63722;48.858;21.906;2023-01-10T23:00:47;98728.75;;;20.36;46.50
57574;BME280;63722;48.858;21.906;2023-01-10T23:03:12;98737.53;;;20.36;46.50
57574;BME280;63722;48.858;21.906;2023-01-10T23:05:38;98732.44;;;20.35;46.52
57574;BME280;63722;48.858;21.906;2023-01-10T23:08:03;98740.66;;;20.33;46.45
57574;BME280;63722;48.858;21.906;2023-01-10T23:10:29;98747.38;;;20.36;46.40
57574;BME280;63722;48.858;21.906;2023-01-10T23:12:54;98749.81;;;20.37;46.41
57574;BME280;63722;48.858;21.906;2023-01-10T23:15:19;98749.47;;;20.34;46.41
57574;BME280;63722;48.858;21.906;2023-01-10T23:17:45;98753.75;;;20.35;46.49
57574;BME280;63722;48.858;21.906;2023-01-10T23:20:10;98752.94;;;20.34;46.57
57574;BME280;63722;48.858;21.906;2023-01-10T23:22:36;98757.22;;;20.35;46.46
57574;BME280;63722;48.858;21.906;2023-01-10T23:25:01;98755.94;;;20.38;46.28
57574;BME280;63722;48.858;21.906;2023-01-10T23:27:27;98756.41;;;20.35;46.30
57574;BME280;63722;48.858;21.906;2023-01-10T23:29:52;98761.72;;;20.35;46.39
57574;BME280;63722;48.858;21.906;2023-01-10T23:32:17;98766.50;;;20.33;46.51
57574;BME280;63722;48.858;21.906;2023-01-10T23:34:43;98772.38;;;20.35;46.52
57574;BME280;63722;48.858;21.906;2023-01-10T23:37:08;98764.41;;;20.35;46.26
57574;BME280;63722;48.858;21.906;2023-01-10T23:39:34;98757.69;;;20.32;46.33
57574;BME280;63722;48.858;21.906;2023-01-10T23:41:59;98762.78;;;20.34;46.33
57574;BME280;63722;48.858;21.906;2023-01-10T23:44:24;98756.88;;;20.32;46.39
57574;BME280;63722;48.858;21.906;2023-01-10T23:46:53;98760.59;;;20.31;46.31
57574;BME280;63722;48.858;21.906;2023-01-10T23:49:19;98754.78;;;20.34;46.18
57574;BME280;63722;48.858;21.906;2023-01-10T23:51:44;98747.63;;;20.34;46.20
57574;BME280;63722;48.858;21.906;2023-01-10T23:54:10;98753.75;;;20.35;46.24
57574;BME280;63722;48.858;21.906;2023-01-10T23:56:35;98742.19;;;20.29;46.12
57574;BME280;63722;48.858;21.906;2023-01-10T23:59:01;98749.47;;;20.34;46.18
